Time,TemperatureF,DewpointF,PressureIn,WindDirection,WindDirectionDegrees,WindSpeedMPH,WindSpeedGustMPH,Humidity,HourlyPrecipIn,Conditions,Clouds,dailyrainin,SoftwareType,DateUTC
2013-03-24 00:30:00,42.5,39.5,30.07,WNW,302,5.0,6.0,89,0.00,,,0.00,Wunderground v.1.15,2013-03-24 07:30:00,
2013-03-24 01:00:00,42.5,39.5,30.07,WNW,282,2.0,2.0,89,0.00,,,0.00,Wunderground v.1.15,2013-03-24 08:00:00,
2013-03-24 01:30:00,41.9,39.2,30.07,NW,304,4.0,4.0,90,0.00,,,0.00,Wunderground v.1.15,2013-03-24 08:30:00,
2013-03-24 01:59:00,42.0,39.3,30.07,WNW,296,4.0,6.0,90,0.00,,,0.00,Wunderground v.1.15,2013-03-24 08:59:00,
2013-03-24 02:29:00,41.9,39.5,30.08,WNW,299,3.0,3.0,91,0.00,,,0.00,Wunderground v.1.15,2013-03-24 09:29:00,
2013-03-24 02:59:00,41.7,39.0,30.07,NW,310,1.0,1.0,90,0.00,,,0.00,Wunderground v.1.15,2013-03-24 09:59:00,
2013-03-24 03:29:00,40.8,38.4,30.06,WNW,282,0.0,0.0,91,0.00,,,0.00,Wunderground v.1.15,2013-03-24 10:29:00,
2013-03-24 04:00:00,40.3,37.9,30.06,NW,308,2.0,4.0,91,0.00,,,0.00,Wunderground v.1.15,2013-03-24 11:00:00,
2013-03-24 04:30:00,40.1,38.2,30.07,WNW,295,5.0,7.0,93,0.00,,,0.00,Wunderground v.1.15,2013-03-24 11:30:00,
2013-03-24 05:00:00,39.7,37.8,30.06,NW,309,1.0,1.0,93,0.00,,,0.00,Wunderground v.1.15,2013-03-24 12:00:00,
2013-03-24 05:30:00,39.8,37.4,30.06,NW,319,2.0,2.0,91,0.00,,,0.00,Wunderground v.1.15,2013-03-24 12:30:00,
2013-03-24 06:00:00,39.9,37.8,30.07,WNW,300,4.0,4.0,92,0.00,,,0.00,Wunderground v.1.15,2013-03-24 13:00:00,
2013-03-24 06:29:00,38.6,37.0,30.07,WNW,286,3.0,3.0,94,0.00,,,0.00,Wunderground v.1.15,2013-03-24 13:29:00,
2013-03-24 07:00:00,38.9,36.8,30.08,NW,308,3.0,3.0,92,0.00,,,0.00,Wunderground v.1.15,2013-03-24 14:00:00,
2013-03-24 07:29:00,39.0,36.9,30.08,NW,304,0.0,0.0,92,0.00,,,0.00,Wunderground v.1.15,2013-03-24 14:29:00,
2013-03-24 07:59:00,40.7,38.6,30.08,WNW,302,4.0,4.0,92,0.00,,,0.00,Wunderground v.1.15,2013-03-24 14:59:00,
2013-03-24 08:29:00,43.1,40.1,30.08,WNW,287,4.0,6.0,89,0.00,,,0.00,Wunderground v.1.15,2013-03-24 15:29:00,
2013-03-24 09:00:00,45.8,40.9,30.08,West,281,4.0,6.0,83,0.00,,,0.00,Wunderground v.1.15,2013-03-24 16:00:00,
2013-03-24 09:29:00,49.0,42.4,30.08,WNW,294,1.0,1.0,78,0.00,,,0.00,Wunderground v.1.15,2013-03-24 16:29:00,
2013-03-24 09:59:00,52.9,42.2,30.08,ESE,121,2.0,2.0,67,0.00,,,0.00,Wunderground v.1.15,2013-03-24 16:59:00,
2013-03-24 10:30:00,54.0,42.1,30.08,South,184,3.0,3.0,64,0.00,,,0.00,Wunderground v.1.15,2013-03-24 17:30:00,
2013-03-24 10:59:00,56.5,41.4,30.08,East,96,2.0,2.0,57,0.00,,,0.00,Wunderground v.1.15,2013-03-24 17:59:00,
2013-03-24 11:29:00,57.8,43.1,30.07,SSE,155,3.0,3.0,58,0.00,,,0.00,Wunderground v.1.15,2013-03-24 18:29:00,
2013-03-24 12:00:00,60.3,43.1,30.07,ESE,118,3.0,6.0,53,0.00,,,0.00,Wunderground v.1.15,2013-03-24 19:00:00,
2013-03-24 12:30:00,62.3,44.9,30.07,SE,145,3.0,3.0,53,0.00,,,0.00,Wunderground v.1.15,2013-03-24 19:30:00,
2013-03-24 12:59:00,63.7,45.2,30.06,East,80,2.0,2.0,51,0.00,,,0.00,Wunderground v.1.15,2013-03-24 19:59:00,
2013-03-24 13:30:00,64.7,46.7,30.04,SSE,167,3.0,4.0,52,0.00,,,0.00,Wunderground v.1.15,2013-03-24 20:30:00,
2013-03-24 13:59:00,64.1,47.1,30.03,SE,136,5.0,5.0,54,0.00,,,0.00,Wunderground v.1.15,2013-03-24 20:59:00,
2013-03-24 14:29:00,65.2,46.6,30.01,ESE,122,5.0,5.0,51,0.00,,,0.00,Wunderground v.1.15,2013-03-24 21:29:00,
2013-03-24 15:00:00,66.7,46.4,30.00,SE,143,4.0,4.0,48,0.00,,,0.00,Wunderground v.1.15,2013-03-24 22:00:00,
2013-03-24 15:29:00,67.1,47.8,29.99,WNW,284,6.0,7.0,50,0.00,,,0.00,Wunderground v.1.15,2013-03-24 22:29:00,
2013-03-24 15:59:00,65.7,47.6,29.98,NW,315,8.0,8.0,52,0.00,,,0.00,Wunderground v.1.15,2013-03-24 22:59:00,
2013-03-24 16:29:00,63.9,47.9,29.98,WNW,298,9.0,13.0,56,0.00,,,0.00,Wunderground v.1.15,2013-03-24 23:29:00,
2013-03-24 16:59:00,61.2,46.8,29.98,WNW,285,11.0,12.0,59,0.00,,,0.00,Wunderground v.1.15,2013-03-24 23:59:00,
2013-03-24 17:30:00,59.5,45.6,29.97,WNW,298,12.0,12.0,60,0.00,,,0.00,Wunderground v.1.15,2013-03-25 00:30:00,
2013-03-24 18:00:00,56.4,43.5,29.98,NW,310,12.0,12.0,62,0.00,,,0.00,Wunderground v.1.15,2013-03-25 01:00:00,
2013-03-24 18:30:00,53.9,43.6,29.97,WNW,301,11.0,11.0,68,0.00,,,0.00,Wunderground v.1.15,2013-03-25 01:30:00,
2013-03-24 19:00:00,51.7,42.6,29.98,WNW,301,10.0,10.0,71,0.00,,,0.00,Wunderground v.1.15,2013-03-25 02:00:00,
2013-03-24 19:30:00,49.7,41.0,29.98,WNW,284,7.0,7.0,72,0.00,,,0.00,Wunderground v.1.15,2013-03-25 02:30:00,
2013-03-24 20:00:00,49.7,39.9,29.97,NNW,337,4.0,4.0,69,0.00,,,0.00,Wunderground v.1.15,2013-03-25 03:00:00,
2013-03-24 20:30:00,50.8,39.1,29.98,WNW,296,3.0,4.0,64,0.00,,,0.00,Wunderground v.1.15,2013-03-25 03:30:00,
2013-03-24 21:00:00,49.9,40.1,29.98,West,274,4.0,5.0,69,0.00,,,0.00,Wunderground v.1.15,2013-03-25 04:00:00,
2013-03-24 21:29:00,48.5,40.2,29.98,North,355,2.0,2.0,73,0.00,,,0.00,Wunderground v.1.15,2013-03-25 04:29:00,
2013-03-24 21:59:00,47.6,41.1,29.99,WNW,285,4.0,4.0,78,0.00,,,0.00,Wunderground v.1.15,2013-03-25 04:59:00,
2013-03-24 22:29:00,47.9,41.0,29.99,NW,313,4.0,5.0,77,0.00,,,0.00,Wunderground v.1.15,2013-03-25 05:29:00,
2013-03-24 23:00:00,46.6,41.1,30.00,NW,304,2.0,5.0,81,0.00,,,0.00,Wunderground v.1.15,2013-03-25 06:00:00,
2013-03-24 23:30:00,46.0,41.4,29.99,North,351,5.0,6.0,84,0.00,,,0.00,Wunderground v.1.15,2013-03-25 06:30:00,